createdAt,value
2018-08-22T00:01:05.595Z,69.58
2018-08-22T00:04:08.758Z,69.47
2018-08-22T00:07:11.960Z,70.27
2018-08-22T00:10:15.093Z,69.82
2018-08-22T00:13:18.254Z,69.96
2018-08-22T00:16:21.341Z,69.50
2018-08-22T00:19:24.532Z,69.90
2018-08-22T00:22:27.791Z,69.68
2018-08-22T00:25:30.942Z,69.68
2018-08-22T00:28:34.041Z,69.84
2018-08-22T00:31:37.231Z,69.60
2018-08-22T00:34:40.344Z,69.54
2018-08-22T00:37:43.466Z,69.95
2018-08-22T00:40:46.569Z,69.94
2018-08-22T00:43:49.734Z,69.91
2018-08-22T00:46:52.895Z,69.90
2018-08-22T00:49:56.036Z,70.33
2018-08-22T00:52:59.163Z,69.72
2018-08-22T00:56:02.374Z,70.20
2018-08-22T00:59:05.570Z,70.93
2018-08-22T01:02:08.776Z,70.97
2018-08-22T01:05:11.917Z,70.50
2018-08-22T01:08:15.118Z,70.22
2018-08-22T01:11:18.324Z,71.83
2018-08-22T01:14:21.512Z,70.72
2018-08-22T01:17:24.613Z,71.28
2018-08-22T01:20:28.304Z,70.96
2018-08-22T01:23:31.509Z,71.15
2018-08-22T01:26:34.671Z,71.85
2018-08-22T01:29:37.832Z,71.96
2018-08-22T01:32:41.013Z,71.77
2018-08-22T01:35:44.199Z,71.12
2018-08-22T01:38:47.325Z,71.53
2018-08-22T01:41:50.750Z,72.90
2018-08-22T01:44:53.916Z,72.79
2018-08-22T01:47:57.041Z,72.00
2018-08-22T01:51:00.325Z,71.54
2018-08-22T01:54:03.588Z,72.05
2018-08-22T01:57:06.715Z,72.63
2018-08-22T02:00:10.093Z,72.63
2018-08-22T02:03:13.407Z,72.05
2018-08-22T02:06:18.110Z,72.01
2018-08-22T02:09:21.415Z,71.96
2018-08-22T02:12:24.581Z,71.97
2018-08-22T02:15:27.807Z,72.55
2018-08-22T02:18:31.034Z,72.34
2018-08-22T02:21:34.882Z,72.26
2018-08-22T02:28:00.969Z,72.29
2018-08-22T02:31:04.307Z,71.78
2018-08-22T02:34:07.416Z,72.14
2018-08-22T02:37:10.683Z,72.51
2018-08-22T02:40:13.980Z,72.87
2018-08-22T02:43:17.271Z,73.00
2018-08-22T02:46:20.593Z,71.96
2018-08-22T02:49:24.066Z,71.75
2018-08-22T02:52:27.234Z,72.17
2018-08-22T02:55:30.377Z,72.38
2018-08-22T02:58:33.895Z,71.92
2018-08-22T03:01:37.089Z,72.62
2018-08-22T03:04:40.504Z,72.51
2018-08-22T03:07:50.892Z,72.79
2018-08-22T03:10:54.662Z,73.22
2018-08-22T03:13:57.905Z,72.69
2018-08-22T03:17:01.199Z,72.69
2018-08-22T03:20:05.093Z,73.40
2018-08-22T03:23:15.021Z,72.69
2018-08-22T03:26:18.249Z,72.50
2018-08-22T03:29:21.340Z,72.62
2018-08-22T03:32:24.530Z,73.18
2018-08-22T03:35:27.723Z,73.49
2018-08-22T03:38:31.070Z,73.91
2018-08-22T03:41:34.284Z,73.37
2018-08-22T03:44:37.448Z,74.00
2018-08-22T03:47:40.627Z,73.55
2018-08-22T03:50:43.849Z,73.12
2018-08-22T03:53:47.062Z,73.15
2018-08-22T03:56:50.291Z,73.35
2018-08-22T03:59:53.467Z,73.76
2018-08-22T04:02:56.748Z,73.19
2018-08-22T04:05:59.928Z,73.54
2018-08-22T04:09:03.868Z,73.76
2018-08-22T04:12:07.031Z,73.41
2018-08-22T04:15:10.253Z,73.64
2018-08-22T04:18:13.501Z,74.14
2018-08-22T04:21:16.673Z,73.97
2018-08-22T04:24:19.848Z,73.76
2018-08-22T04:27:23.121Z,73.45
2018-08-22T04:30:26.308Z,74.64
2018-08-22T04:33:29.487Z,74.50
2018-08-22T04:36:32.756Z,74.96
2018-08-22T04:39:35.923Z,75.63
2018-08-22T04:42:39.187Z,74.76
2018-08-22T04:45:42.385Z,74.51
2018-08-22T04:48:45.549Z,75.03
2018-08-22T04:51:48.804Z,74.76
2018-08-22T04:54:52.059Z,75.57
2018-08-22T04:57:55.247Z,75.72
2018-08-22T05:00:58.522Z,74.63
2018-08-22T05:04:01.722Z,75.29
2018-08-22T05:07:05.021Z,75.56
2018-08-22T05:10:08.272Z,75.59
2018-08-22T05:13:11.674Z,75.51
2018-08-22T05:16:14.871Z,75.50
2018-08-22T05:19:18.092Z,75.26
2018-08-22T05:22:21.314Z,75.73
2018-08-22T05:25:24.551Z,76.22
2018-08-22T05:28:34.326Z,76.05
2018-08-22T05:31:38.048Z,75.73
2018-08-22T05:34:41.229Z,75.30
2018-08-22T05:37:44.450Z,75.28
2018-08-22T05:40:48.306Z,75.08
2018-08-22T05:43:51.559Z,76.04
2018-08-22T05:46:54.812Z,75.35
2018-08-22T05:50:04.693Z,75.83
2018-08-22T05:53:07.957Z,76.51
2018-08-22T05:56:11.201Z,77.03
2018-08-22T05:59:14.415Z,75.91
2018-08-22T06:02:18.710Z,76.13
2018-08-22T06:05:24.053Z,76.86
2018-08-22T06:08:27.207Z,76.07
2018-08-22T06:11:30.354Z,76.76
2018-08-22T06:14:33.712Z,76.60
2018-08-22T06:17:36.814Z,75.95
2018-08-22T06:20:40.009Z,76.87
2018-08-22T06:23:43.090Z,76.60
2018-08-22T06:26:46.255Z,76.51
2018-08-22T06:29:49.777Z,77.10
2018-08-22T06:32:52.905Z,76.92
2018-08-22T06:35:56.007Z,77.08
2018-08-22T06:38:59.121Z,77.49
2018-08-22T06:42:02.280Z,77.21
2018-08-22T06:45:07.018Z,77.65
2018-08-22T06:48:10.073Z,77.72
2018-08-22T06:51:13.310Z,77.43
2018-08-22T06:54:16.606Z,77.58
2018-08-22T06:57:19.781Z,77.30
2018-08-22T07:00:22.928Z,77.51
2018-08-22T07:03:26.152Z,77.23
2018-08-22T07:06:29.270Z,77.07
2018-08-22T07:09:32.497Z,76.59
2018-08-22T07:12:35.554Z,77.01
2018-08-22T07:15:39.319Z,76.96
2018-08-22T07:18:43.064Z,76.77
2018-08-22T07:21:46.572Z,77.00
2018-08-22T07:24:49.854Z,76.67
2018-08-22T07:27:53.017Z,74.82
2018-08-22T07:30:56.095Z,74.90
2018-08-22T07:33:59.365Z,73.98
2018-08-22T07:40:05.507Z,73.30
2018-08-22T07:43:08.616Z,71.91
2018-08-22T07:46:11.743Z,72.26
2018-08-22T07:49:14.785Z,71.69
2018-08-22T07:52:17.947Z,72.23
2018-08-22T07:55:21.179Z,72.60
2018-08-22T07:58:24.404Z,71.59
2018-08-22T08:01:27.541Z,72.11
2018-08-22T08:04:30.697Z,72.16
2018-08-22T08:07:33.863Z,73.15
2018-08-22T08:10:37.342Z,71.69
2018-08-22T08:13:40.528Z,71.30
2018-08-22T08:16:43.689Z,66.60
2018-08-22T08:19:46.900Z,66.28
2018-08-22T08:22:50.082Z,69.63
2018-08-22T08:25:53.175Z,70.08
2018-08-22T08:28:56.315Z,69.58
2018-08-22T08:31:59.440Z,67.51
2018-08-22T08:35:02.626Z,67.51
2018-08-22T08:38:05.764Z,67.75
2018-08-22T08:41:09.273Z,67.74
2018-08-22T08:44:12.299Z,66.37
2018-08-22T08:47:15.375Z,64.82
2018-08-22T08:53:50.213Z,65.83
2018-08-22T08:56:53.419Z,67.77
2018-08-22T08:59:56.499Z,67.80
2018-08-22T09:02:59.634Z,64.90
2018-08-22T09:06:02.759Z,64.43
2018-08-22T09:09:08.365Z,63.98
2018-08-22T09:12:11.528Z,64.51
2018-08-22T09:15:14.611Z,62.43
2018-08-22T09:18:17.725Z,63.77
2018-08-22T09:21:20.913Z,63.15
2018-08-22T09:24:24.091Z,58.73
2018-08-22T09:27:27.164Z,58.95
2018-08-22T09:30:30.281Z,57.41
2018-08-22T09:33:33.342Z,56.07
2018-08-22T09:36:36.424Z,57.82
2018-08-22T09:39:39.569Z,59.43
2018-08-22T09:42:42.677Z,59.03
2018-08-22T09:45:45.779Z,60.42
2018-08-22T09:48:49.220Z,58.75
2018-08-22T09:51:52.316Z,57.33
2018-08-22T09:54:59.756Z,56.17
2018-08-22T09:58:02.886Z,56.05
2018-08-22T10:01:11.746Z,57.20
2018-08-22T10:04:15.065Z,55.79
2018-08-22T10:07:18.310Z,53.91
2018-08-22T10:10:21.359Z,56.90
2018-08-22T10:13:24.505Z,53.78
2018-08-22T10:16:28.500Z,53.89
2018-08-22T10:19:31.697Z,56.19
2018-08-22T10:22:34.708Z,54.63
2018-08-22T10:25:37.830Z,55.73
2018-08-22T10:28:40.946Z,55.32
2018-08-22T10:31:44.049Z,54.24
2018-08-22T10:34:47.105Z,54.39
2018-08-22T10:37:50.297Z,53.95
2018-08-22T10:40:53.689Z,52.27
2018-08-22T10:43:56.869Z,52.64
2018-08-22T10:47:01.349Z,53.67
2018-08-22T10:50:13.867Z,54.70
2018-08-22T10:53:17.749Z,53.76
2018-08-22T10:56:21.130Z,53.93
2018-08-22T10:59:25.384Z,53.44
2018-08-22T11:02:29.529Z,50.92
2018-08-22T11:05:33.052Z,49.39
2018-08-22T11:08:37.981Z,50.18
2018-08-22T11:11:42.343Z,47.83
2018-08-22T11:14:46.069Z,46.67
2018-08-22T11:17:49.320Z,48.43
2018-08-22T11:20:52.555Z,49.94
2018-08-22T11:24:14.002Z,49.33
2018-08-22T11:27:34.924Z,50.55
2018-08-22T11:30:55.575Z,50.84
2018-08-22T11:34:15.900Z,51.25
2018-08-22T11:37:20.289Z,51.15
2018-08-22T11:40:24.715Z,52.99
2018-08-22T11:43:28.270Z,52.93
2018-08-22T11:46:31.919Z,52.22
2018-08-22T11:49:36.071Z,51.75
2018-08-22T11:52:40.659Z,51.99
2018-08-22T11:55:44.292Z,53.68
2018-08-22T11:58:48.803Z,53.12
2018-08-22T12:01:53.578Z,53.10
2018-08-22T12:04:57.377Z,51.68
2018-08-22T12:08:01.060Z,50.93
2018-08-22T12:11:04.973Z,52.78
2018-08-22T12:14:09.182Z,51.60
2018-08-22T12:17:13.123Z,51.47
2018-08-22T12:20:16.686Z,49.65
2018-08-22T12:23:20.274Z,48.49
2018-08-22T12:26:23.680Z,49.56
2018-08-22T12:29:27.583Z,50.83
2018-08-22T12:32:31.144Z,49.71
2018-08-22T12:35:34.776Z,49.10
2018-08-22T12:38:38.169Z,51.39
2018-08-22T12:41:41.699Z,51.56
2018-08-22T12:44:45.618Z,51.92
2018-08-22T12:47:49.989Z,51.00
2018-08-22T12:50:53.927Z,50.28
2018-08-22T12:53:57.777Z,52.52
2018-08-22T12:57:01.421Z,50.25
2018-08-22T13:00:05.571Z,48.21
2018-08-22T13:03:09.041Z,48.65
2018-08-22T13:06:12.402Z,48.46
2018-08-22T13:09:15.972Z,47.52
2018-08-22T13:12:19.817Z,46.11
2018-08-22T13:15:23.785Z,46.91
2018-08-22T13:18:27.393Z,45.50
2018-08-22T13:21:30.539Z,45.49
2018-08-22T13:24:33.856Z,45.67
2018-08-22T13:27:36.908Z,46.20
2018-08-22T13:30:39.986Z,47.63
2018-08-22T13:33:43.086Z,46.09
2018-08-22T13:36:46.202Z,46.57
2018-08-22T13:39:49.373Z,46.47
2018-08-22T13:42:52.474Z,45.60
2018-08-22T13:45:55.569Z,44.02
2018-08-22T13:48:58.849Z,44.43
2018-08-22T13:52:01.927Z,45.31
2018-08-22T13:55:05.432Z,44.28
2018-08-22T13:58:08.501Z,43.24
2018-08-22T14:01:11.602Z,43.55
2018-08-22T14:04:14.756Z,44.22
2018-08-22T14:07:17.801Z,43.82
2018-08-22T14:10:20.925Z,44.22
2018-08-22T14:13:24.056Z,44.40
2018-08-22T14:16:27.119Z,44.18
2018-08-22T14:19:30.202Z,43.19
2018-08-22T14:22:33.313Z,44.54
2018-08-22T14:25:36.389Z,44.61
2018-08-22T14:28:39.454Z,43.86
2018-08-22T14:31:42.549Z,44.93
2018-08-22T14:34:45.643Z,45.05
2018-08-22T14:37:48.679Z,43.09
2018-08-22T14:40:51.727Z,43.37
2018-08-22T14:43:54.859Z,43.67
2018-08-22T14:46:57.937Z,43.11
2018-08-22T14:50:01.032Z,43.95
2018-08-22T14:53:04.138Z,44.87
2018-08-22T14:56:07.273Z,45.98
2018-08-22T14:59:10.379Z,42.13
2018-08-22T15:02:13.480Z,42.52
2018-08-22T15:05:16.606Z,43.27
2018-08-22T15:08:19.663Z,43.81
2018-08-22T15:11:22.717Z,43.81
2018-08-22T15:14:25.821Z,43.12
2018-08-22T15:17:28.906Z,44.04
2018-08-22T15:20:32.050Z,45.27
2018-08-22T15:23:35.139Z,43.73
2018-08-22T15:26:38.228Z,44.69
2018-08-22T15:29:41.315Z,44.82
2018-08-22T15:32:44.522Z,44.16
2018-08-22T15:35:47.591Z,44.11
2018-08-22T15:38:50.659Z,46.10
2018-08-22T15:41:53.787Z,45.96
2018-08-22T15:44:56.907Z,45.85
2018-08-22T15:47:59.989Z,45.34
2018-08-22T15:51:03.076Z,44.73
2018-08-22T15:54:10.427Z,45.04
2018-08-22T15:57:20.103Z,47.11
2018-08-22T16:00:49.708Z,45.69
2018-08-22T16:03:52.830Z,46.67
2018-08-22T16:07:03.307Z,45.62
2018-08-22T16:10:06.464Z,46.57
2018-08-22T16:13:16.227Z,47.13
2018-08-22T16:16:19.309Z,46.46
2018-08-22T16:19:22.386Z,47.78
2018-08-22T16:22:25.359Z,47.07
2018-08-22T16:25:33.789Z,46.99
2018-08-22T16:28:51.789Z,47.57
2018-08-22T16:31:55.581Z,48.84
2018-08-22T16:34:58.652Z,48.49
2018-08-22T16:38:04.424Z,48.00
2018-08-22T16:41:07.514Z,47.36
2018-08-22T16:44:10.566Z,46.62
2018-08-22T16:47:15.557Z,46.55
2018-08-22T16:50:20.492Z,47.61
2018-08-22T16:53:31.642Z,47.93
2018-08-22T16:56:35.116Z,48.45
2018-08-22T16:59:38.177Z,48.58
2018-08-22T17:02:41.250Z,47.69
2018-08-22T17:05:44.264Z,47.05
2018-08-22T17:08:47.623Z,47.19
2018-08-22T17:11:50.726Z,47.99
2018-08-22T17:14:53.718Z,48.46
2018-08-22T17:17:56.754Z,49.01
2018-08-22T17:20:59.806Z,48.39
2018-08-22T17:24:02.829Z,49.46
2018-08-22T17:27:06.036Z,50.15
2018-08-22T17:31:33.649Z,50.26
2018-08-22T17:34:36.689Z,49.87
2018-08-22T17:37:56.399Z,50.03
2018-08-22T17:40:59.490Z,50.97
2018-08-22T17:44:10.583Z,50.43
2018-08-22T17:47:13.683Z,50.37
2018-08-22T17:50:16.881Z,50.07
2018-08-22T17:53:20.853Z,49.62
2018-08-22T17:56:26.362Z,50.25
2018-08-22T17:59:30.046Z,49.37
2018-08-22T18:02:33.769Z,50.78
2018-08-22T18:05:36.983Z,50.22
2018-08-22T18:08:40.144Z,50.63
2018-08-22T18:11:43.358Z,50.48
2018-08-22T18:14:47.172Z,50.44
2018-08-22T18:17:50.602Z,51.83
2018-08-22T18:20:57.430Z,52.03
2018-08-22T18:24:01.164Z,51.99
2018-08-22T18:27:05.572Z,53.90
2018-08-22T18:30:11.376Z,52.83
2018-08-22T18:33:14.500Z,54.01
2018-08-22T18:36:17.830Z,54.79
2018-08-22T18:39:21.374Z,55.91
2018-08-22T18:42:25.478Z,56.70
2018-08-22T18:45:29.120Z,57.54
2018-08-22T18:48:33.330Z,58.23
2018-08-22T18:51:36.571Z,58.10
2018-08-22T18:54:39.699Z,58.38
2018-08-22T18:57:43.321Z,59.01
2018-08-22T19:00:46.568Z,59.04
2018-08-22T19:03:50.347Z,59.74
2018-08-22T19:06:53.751Z,59.45
2018-08-22T19:09:57.153Z,58.72
2018-08-22T19:13:05.594Z,59.16
2018-08-22T19:16:09.880Z,59.74
2018-08-22T19:19:13.017Z,59.99
2018-08-22T19:22:17.321Z,59.67
2018-08-22T19:25:20.699Z,60.22
2018-08-22T19:28:24.380Z,60.64
2018-08-22T19:31:27.710Z,60.77
2018-08-22T19:34:31.409Z,59.95
2018-08-22T19:37:34.514Z,60.40
2018-08-22T19:40:37.663Z,60.01
2018-08-22T19:43:40.777Z,60.67
2018-08-22T19:46:43.837Z,60.92
2018-08-22T19:49:53.626Z,61.15
2018-08-22T19:52:56.768Z,61.50
2018-08-22T19:55:59.876Z,62.20
2018-08-22T19:59:03.847Z,61.46
2018-08-22T20:02:06.936Z,61.99
2018-08-22T20:05:14.207Z,61.56
2018-08-22T20:08:17.568Z,61.69
2018-08-22T20:11:20.840Z,61.05
2018-08-22T20:14:24.000Z,62.06
2018-08-22T20:17:28.530Z,61.56
2018-08-22T20:20:31.841Z,60.43
2018-08-22T20:23:35.127Z,60.50
2018-08-22T20:26:43.484Z,60.85
2018-08-22T20:29:46.590Z,60.83
2018-08-22T20:32:59.114Z,60.58
2018-08-22T20:36:02.140Z,60.42
2018-08-22T20:39:10.255Z,60.63
2018-08-22T20:42:13.300Z,60.85
2018-08-22T20:45:20.938Z,61.16
2018-08-22T20:48:24.159Z,61.38
2018-08-22T20:51:29.288Z,61.11
2018-08-22T20:54:32.616Z,61.26
2018-08-22T20:57:35.769Z,60.74
2018-08-22T21:00:38.982Z,61.21
2018-08-22T21:03:42.791Z,61.02
2018-08-22T21:06:45.926Z,61.23
2018-08-22T21:09:49.166Z,61.53
2018-08-22T21:12:52.367Z,63.96
2018-08-22T21:15:55.823Z,64.75
2018-08-22T21:18:58.902Z,65.01
2018-08-22T21:22:02.591Z,65.17
2018-08-22T21:25:05.983Z,65.90
2018-08-22T21:28:09.232Z,66.30
2018-08-22T21:31:28.668Z,66.52
2018-08-22T21:34:31.785Z,65.79
2018-08-22T21:37:34.984Z,66.18
2018-08-22T21:40:38.192Z,66.43
2018-08-22T21:43:41.320Z,66.97
2018-08-22T21:46:44.696Z,67.38
2018-08-22T21:49:47.982Z,67.44
2018-08-22T21:52:57.454Z,66.88
2018-08-22T21:56:00.547Z,66.82
2018-08-22T21:59:03.725Z,67.64
2018-08-22T22:02:08.159Z,67.20
2018-08-22T22:05:12.019Z,68.08
2018-08-22T22:08:16.704Z,67.07
2018-08-22T22:11:21.095Z,67.92
2018-08-22T22:14:26.921Z,67.48
2018-08-22T22:17:32.693Z,67.71
2018-08-22T22:20:35.822Z,67.52
2018-08-22T22:23:48.181Z,67.28
2018-08-22T22:26:59.078Z,67.33
2018-08-22T22:30:05.199Z,67.32
2018-08-22T22:33:46.806Z,66.87
2018-08-22T22:36:50.873Z,67.34
2018-08-22T22:39:53.966Z,68.37
2018-08-22T22:42:58.456Z,67.44
2018-08-22T23:00:31.270Z,69.19
2018-08-22T23:03:34.458Z,69.47
2018-08-22T23:06:37.553Z,69.46
2018-08-22T23:09:52.209Z,69.41
2018-08-22T23:12:55.389Z,69.71
2018-08-22T23:15:58.537Z,69.56
2018-08-22T23:19:01.621Z,68.82
2018-08-22T23:22:04.791Z,69.20
2018-08-22T23:25:08.223Z,70.18
2018-08-22T23:28:11.365Z,69.77
2018-08-22T23:31:16.115Z,69.48
2018-08-22T23:34:19.311Z,69.97
2018-08-22T23:37:22.406Z,70.36
2018-08-22T23:40:26.713Z,70.05
2018-08-22T23:44:05.735Z,69.84
2018-08-22T23:47:08.962Z,69.32
2018-08-22T23:50:12.090Z,69.12
2018-08-22T23:53:15.243Z,70.02
2018-08-22T23:56:24.447Z,69.87
2018-08-22T23:59:27.559Z,70.14
